createdAt,value
2023-01-30T00:01:00.235Z,88.70
2023-01-30T00:03:27.490Z,88.70
2023-01-30T00:05:54.356Z,88.50
2023-01-30T00:08:21.539Z,88.60
2023-01-30T00:10:49.315Z,88.60
2023-01-30T00:13:16.808Z,88.70
2023-01-30T00:15:44.017Z,88.80
2023-01-30T00:18:10.876Z,88.90
2023-01-30T00:20:37.716Z,89.20
2023-01-30T00:23:05.042Z,89.10
2023-01-30T00:25:31.973Z,88.80
2023-01-30T00:28:01.007Z,88.80
2023-01-30T00:30:28.412Z,88.80
2023-01-30T00:32:56.610Z,88.60
2023-01-30T00:35:28.325Z,88.90
2023-01-30T00:37:59.454Z,88.60
2023-01-30T00:40:28.373Z,88.50
2023-01-30T00:43:14.080Z,88.60
2023-01-30T00:46:02.872Z,88.80
2023-01-30T00:48:29.732Z,88.40
2023-01-30T00:50:59.441Z,88.30
2023-01-30T00:53:26.278Z,87.70
2023-01-30T00:55:53.932Z,87.30
2023-01-30T00:58:21.337Z,87.50
2023-01-30T01:00:49.126Z,87.60
2023-01-30T01:03:16.039Z,87.40
2023-01-30T01:05:43.481Z,87.30
2023-01-30T01:08:11.203Z,87.70
2023-01-30T01:10:38.391Z,87.40
2023-01-30T01:13:06.885Z,86.90
2023-01-30T01:15:34.008Z,87.20
2023-01-30T01:18:00.773Z,87.20
2023-01-30T01:20:27.612Z,87.00
2023-01-30T01:22:56.035Z,87.20
2023-01-30T01:25:24.542Z,87.40
2023-01-30T01:27:51.649Z,87.00
2023-01-30T01:30:18.568Z,86.80
2023-01-30T01:32:45.333Z,86.90
2023-01-30T01:35:12.382Z,87.10
2023-01-30T01:37:39.150Z,86.70
2023-01-30T01:40:25.698Z,86.70
2023-01-30T01:42:52.516Z,86.20
2023-01-30T01:45:23.129Z,86.20
2023-01-30T01:47:59.017Z,86.30
2023-01-30T01:50:32.393Z,86.60
2023-01-30T01:53:01.893Z,86.70
2023-01-30T01:55:30.203Z,86.70
2023-01-30T01:58:10.394Z,86.50
2023-01-30T02:00:37.131Z,86.40
2023-01-30T02:03:07.829Z,86.50
2023-01-30T02:05:38.297Z,87.10
2023-01-30T02:08:16.909Z,86.90
2023-01-30T02:11:07.265Z,86.80
2023-01-30T02:13:34.209Z,86.80
2023-01-30T02:16:04.353Z,86.10
2023-01-30T02:21:23.470Z,86.50
2023-01-30T02:24:17.818Z,86.30
2023-01-30T02:26:59.799Z,86.00
2023-01-30T02:30:06.808Z,85.80
2023-01-30T02:32:49.589Z,85.90
2023-01-30T02:35:23.144Z,86.00
2023-01-30T02:38:00.970Z,86.40
2023-01-30T02:40:33.967Z,86.40
2023-01-30T02:43:20.195Z,85.80
2023-01-30T02:46:06.550Z,86.20
2023-01-30T02:48:41.865Z,85.90
2023-01-30T02:51:36.658Z,85.70
2023-01-30T02:54:06.923Z,86.10
2023-01-30T02:56:52.531Z,85.60
2023-01-30T02:59:27.942Z,85.90
2023-01-30T03:02:25.368Z,85.40
2023-01-30T03:04:55.430Z,84.90
2023-01-30T03:07:59.578Z,85.00
2023-01-30T03:10:53.929Z,84.70
2023-01-30T03:13:29.268Z,84.70
2023-01-30T03:16:03.503Z,85.10
2023-01-30T03:18:31.449Z,84.60
2023-01-30T03:21:05.260Z,84.60
2023-01-30T03:23:32.092Z,85.30
2023-01-30T03:25:59.741Z,84.60
2023-01-30T03:28:27.912Z,85.10
2023-01-30T03:30:54.842Z,85.20
2023-01-30T03:33:21.784Z,85.40
2023-01-30T03:35:49.796Z,84.90
2023-01-30T03:38:18.185Z,85.20
2023-01-30T03:40:45.153Z,85.40
2023-01-30T03:43:11.901Z,85.50
2023-01-30T03:45:40.344Z,85.60
2023-01-30T03:48:07.916Z,85.00
2023-01-30T03:50:34.964Z,85.00
2023-01-30T03:53:02.263Z,84.50
2023-01-30T03:55:29.280Z,84.50
2023-01-30T03:57:57.472Z,85.00
2023-01-30T04:00:24.280Z,84.70
2023-01-30T04:02:51.402Z,85.50
2023-01-30T04:05:19.088Z,84.70
2023-01-30T04:07:45.953Z,85.60
2023-01-30T04:10:15.340Z,84.60
2023-01-30T04:12:43.001Z,85.10
2023-01-30T04:15:10.720Z,85.50
2023-01-30T04:17:37.759Z,85.10
2023-01-30T04:20:04.953Z,85.40
2023-01-30T04:22:32.836Z,85.10
2023-01-30T04:24:59.622Z,85.70
2023-01-30T04:27:26.379Z,86.00
2023-01-30T04:29:53.617Z,85.40
2023-01-30T04:32:20.361Z,86.20
2023-01-30T04:34:47.235Z,85.50
2023-01-30T04:37:13.990Z,86.00
2023-01-30T04:39:40.722Z,85.90
2023-01-30T04:42:07.445Z,86.60
2023-01-30T04:44:34.206Z,86.40
2023-01-30T04:47:01.070Z,86.20
2023-01-30T04:49:28.017Z,86.20
2023-01-30T04:51:54.746Z,86.50
2023-01-30T04:54:21.774Z,86.40
2023-01-30T04:56:48.509Z,86.40
2023-01-30T04:59:15.590Z,86.80
2023-01-30T05:01:42.895Z,86.40
2023-01-30T05:04:09.915Z,86.90
2023-01-30T05:06:37.049Z,86.10
2023-01-30T05:09:04.620Z,86.30
2023-01-30T05:11:32.219Z,86.60
2023-01-30T05:13:59.468Z,86.50
2023-01-30T05:16:27.342Z,86.20
2023-01-30T05:18:54.113Z,86.30
2023-01-30T05:21:27.794Z,86.60
2023-01-30T05:23:55.871Z,87.00
2023-01-30T05:26:23.817Z,87.70
2023-01-30T05:28:55.492Z,87.70
2023-01-30T05:31:22.708Z,87.80
2023-01-30T05:33:51.964Z,88.10
2023-01-30T05:36:20.655Z,88.40
2023-01-30T05:38:47.460Z,88.90
2023-01-30T05:41:15.684Z,88.40
2023-01-30T05:43:42.626Z,88.70
2023-01-30T05:46:12.265Z,88.10
2023-01-30T05:48:39.179Z,88.10
2023-01-30T05:51:06.648Z,88.30
2023-01-30T05:53:37.260Z,88.60
2023-01-30T05:56:05.483Z,88.40
2023-01-30T05:58:33.431Z,88.80
2023-01-30T06:01:05.344Z,88.70
2023-01-30T06:03:32.579Z,89.00
2023-01-30T06:06:01.609Z,89.10
2023-01-30T06:08:28.498Z,89.50
2023-01-30T06:10:55.305Z,89.80
2023-01-30T06:13:22.122Z,89.90
2023-01-30T06:15:48.879Z,89.90
2023-01-30T06:18:15.640Z,89.80
2023-01-30T06:20:50.420Z,89.90
2023-01-30T06:23:17.508Z,89.90
2023-01-30T06:25:49.008Z,89.80
2023-01-30T06:28:17.092Z,90.20
2023-01-30T06:30:44.122Z,90.30
2023-01-30T06:33:11.657Z,89.90
2023-01-30T06:35:39.369Z,90.10
2023-01-30T06:38:06.592Z,90.00
2023-01-30T06:40:33.369Z,89.70
2023-01-30T06:43:00.113Z,89.30
2023-01-30T06:45:26.870Z,89.40
2023-01-30T06:47:55.819Z,89.60
2023-01-30T06:50:25.035Z,89.20
2023-01-30T06:52:53.140Z,89.20
2023-01-30T06:55:22.748Z,89.30
2023-01-30T06:57:49.626Z,89.60
2023-01-30T07:00:20.352Z,89.10
2023-01-30T07:02:47.585Z,89.10
2023-01-30T07:05:14.677Z,89.40
2023-01-30T07:07:41.423Z,88.80
2023-01-30T07:10:09.332Z,88.70
2023-01-30T07:12:36.824Z,89.00
2023-01-30T07:15:05.221Z,88.30
2023-01-30T07:17:33.159Z,88.70
2023-01-30T07:20:00.060Z,88.80
2023-01-30T07:22:26.902Z,88.60
2023-01-30T07:24:53.670Z,88.60
2023-01-30T07:27:20.414Z,88.40
2023-01-30T07:29:47.286Z,88.80
2023-01-30T07:32:16.567Z,88.80
2023-01-30T07:34:43.572Z,88.50
2023-01-30T07:37:11.489Z,88.00
2023-01-30T07:39:38.233Z,88.50
2023-01-30T07:42:05.486Z,88.20
2023-01-30T07:44:34.029Z,88.00
2023-01-30T07:47:01.310Z,87.80
2023-01-30T07:49:28.128Z,88.00
2023-01-30T07:51:55.004Z,87.60
2023-01-30T07:54:21.718Z,87.70
2023-01-30T07:56:48.485Z,88.20
2023-01-30T07:59:15.885Z,88.10
2023-01-30T08:01:42.600Z,87.70
2023-01-30T08:04:11.089Z,87.80
2023-01-30T08:06:39.838Z,88.00
2023-01-30T08:09:07.475Z,88.20
2023-01-30T08:11:35.318Z,88.30
2023-01-30T08:14:02.556Z,88.30
2023-01-30T08:16:32.377Z,88.50
2023-01-30T08:18:59.356Z,88.40
2023-01-30T08:21:26.256Z,89.00
2023-01-30T08:23:53.008Z,89.20
2023-01-30T08:26:21.001Z,89.40
2023-01-30T08:28:48.082Z,89.90
2023-01-30T08:31:16.371Z,89.80
2023-01-30T08:33:44.496Z,89.90
2023-01-30T08:36:11.268Z,90.30
2023-01-30T08:38:38.051Z,90.20
2023-01-30T08:41:07.503Z,89.60
2023-01-30T08:43:35.189Z,88.90
2023-01-30T08:46:02.547Z,89.10
2023-01-30T08:48:36.711Z,88.40
2023-01-30T08:51:07.002Z,88.50
2023-01-30T08:53:33.759Z,87.80
2023-01-30T08:56:00.500Z,87.20
2023-01-30T08:58:27.239Z,87.10
2023-01-30T09:00:54.013Z,87.30
2023-01-30T09:03:20.743Z,86.80
2023-01-30T09:05:47.528Z,86.60
2023-01-30T09:08:14.272Z,86.20
2023-01-30T09:10:41.082Z,86.10
2023-01-30T09:13:09.577Z,85.60
2023-01-30T09:15:36.839Z,86.00
2023-01-30T09:18:04.975Z,86.00
2023-01-30T09:20:31.857Z,85.70
2023-01-30T09:22:58.753Z,85.60
2023-01-30T09:25:25.668Z,85.30
2023-01-30T09:27:52.483Z,85.40
2023-01-30T09:30:20.024Z,85.60
2023-01-30T09:32:47.679Z,84.90
2023-01-30T09:35:14.567Z,84.90
2023-01-30T09:37:51.964Z,84.90
2023-01-30T09:40:23.515Z,85.60
2023-01-30T09:43:15.119Z,85.30
2023-01-30T09:46:08.446Z,85.10
2023-01-30T09:48:44.979Z,85.00
2023-01-30T09:51:14.823Z,84.70
2023-01-30T09:54:18.011Z,84.80
2023-01-30T09:56:44.822Z,85.60
2023-01-30T09:59:22.237Z,86.00
2023-01-30T10:02:15.003Z,85.90
2023-01-30T10:05:00.669Z,86.20
2023-01-30T10:07:47.223Z,86.70
2023-01-30T10:10:43.427Z,86.20
2023-01-30T10:13:30.785Z,86.50
2023-01-30T10:16:30.405Z,87.40
2023-01-30T10:19:35.564Z,87.50
2023-01-30T10:22:16.666Z,87.70
2023-01-30T10:24:52.439Z,88.00
2023-01-30T10:27:21.111Z,88.70
2023-01-30T10:29:57.198Z,89.40
2023-01-30T10:32:28.936Z,89.20
2023-01-30T10:35:00.276Z,89.30
2023-01-30T10:37:35.819Z,89.60
2023-01-30T10:40:13.476Z,89.80
2023-01-30T10:42:46.703Z,90.30
2023-01-30T10:45:17.541Z,90.60
2023-01-30T10:48:08.536Z,90.80
2023-01-30T10:50:55.552Z,91.00
2023-01-30T10:53:43.078Z,91.30
2023-01-30T10:56:16.959Z,91.70
2023-01-30T10:58:54.095Z,91.80
2023-01-30T11:01:38.361Z,91.90
2023-01-30T11:04:22.353Z,91.90
2023-01-30T11:06:52.399Z,91.80
2023-01-30T11:09:20.434Z,92.00
2023-01-30T11:11:53.508Z,92.10
2023-01-30T11:14:21.216Z,92.10
2023-01-30T11:16:53.073Z,92.10
2023-01-30T11:19:42.123Z,91.90
2023-01-30T11:22:13.568Z,91.60
2023-01-30T11:24:43.359Z,91.50
2023-01-30T11:27:12.364Z,91.60
2023-01-30T11:29:39.888Z,91.90
2023-01-30T11:32:14.583Z,92.00
2023-01-30T11:34:43.726Z,92.20
2023-01-30T11:37:29.569Z,92.40
2023-01-30T11:39:56.550Z,92.50
2023-01-30T11:42:31.450Z,92.50
2023-01-30T11:45:17.327Z,92.70
2023-01-30T11:48:04.723Z,92.70
2023-01-30T11:50:46.538Z,92.90
2023-01-30T11:53:25.241Z,92.90
2023-01-30T11:56:03.783Z,93.20
2023-01-30T11:58:35.893Z,93.30
2023-01-30T12:01:04.152Z,93.50
2023-01-30T12:03:33.883Z,93.60
2023-01-30T12:06:00.739Z,93.70
2023-01-30T12:08:43.278Z,93.80
2023-01-30T12:11:24.934Z,93.90
2023-01-30T12:13:54.087Z,93.90
2023-01-30T12:17:09.287Z,93.90
2023-01-30T12:19:46.587Z,93.90
2023-01-30T12:22:20.690Z,93.90
2023-01-30T12:24:58.556Z,93.90
2023-01-30T12:27:43.199Z,94.00
2023-01-30T12:30:40.787Z,93.90
2023-01-30T12:33:12.913Z,94.00
2023-01-30T12:35:52.161Z,93.80
2023-01-30T12:38:47.244Z,93.50
2023-01-30T12:41:34.786Z,93.30
2023-01-30T12:44:19.274Z,93.30
2023-01-30T12:47:20.795Z,93.20
2023-01-30T12:50:11.212Z,93.10
2023-01-30T12:52:53.999Z,92.70
2023-01-30T12:55:41.600Z,92.40
2023-01-30T12:58:34.879Z,92.10
2023-01-30T13:01:32.590Z,92.30
2023-01-30T13:04:15.462Z,92.10
2023-01-30T13:06:57.828Z,92.00
2023-01-30T13:09:49.259Z,91.70
2023-01-30T13:12:21.860Z,91.40
2023-01-30T13:14:55.808Z,91.60
2023-01-30T13:17:48.730Z,91.70
2023-01-30T13:20:27.008Z,92.00
2023-01-30T13:23:10.972Z,91.60
2023-01-30T13:26:01.035Z,91.60
2023-01-30T13:28:42.535Z,91.40
2023-01-30T13:31:14.769Z,91.30
2023-01-30T13:33:44.797Z,91.60
2023-01-30T13:36:56.033Z,92.00
2023-01-30T13:39:46.211Z,92.10
2023-01-30T13:42:25.340Z,91.60
2023-01-30T13:44:53.634Z,91.60
2023-01-30T13:48:22.364Z,91.30
2023-01-30T13:51:19.614Z,90.70
2023-01-30T13:54:03.175Z,90.30
2023-01-30T13:56:41.865Z,90.40
2023-01-30T13:59:30.808Z,90.50
2023-01-30T14:02:03.962Z,90.40
2023-01-30T14:04:50.317Z,90.70
2023-01-30T14:07:41.099Z,90.80
2023-01-30T14:10:10.681Z,90.60
2023-01-30T14:12:49.428Z,90.90
2023-01-30T14:15:16.394Z,89.30
2023-01-30T14:18:20.486Z,89.10
2023-01-30T14:20:50.324Z,88.60
2023-01-30T14:23:24.108Z,88.20
2023-01-30T14:25:52.889Z,87.00
2023-01-30T14:28:19.564Z,87.60
2023-01-30T14:30:52.170Z,88.00
2023-01-30T14:33:22.005Z,87.60
2023-01-30T14:35:51.727Z,87.30
2023-01-30T14:38:20.460Z,87.50
2023-01-30T14:40:59.155Z,87.90
2023-01-30T14:43:25.843Z,88.20
2023-01-30T14:45:56.898Z,88.30
2023-01-30T14:48:56.806Z,88.10
2023-01-30T14:51:39.813Z,88.00
2023-01-30T14:54:12.835Z,87.80
2023-01-30T14:56:46.066Z,88.30
2023-01-30T14:59:15.905Z,87.10
2023-01-30T15:02:01.514Z,86.70
2023-01-30T15:04:49.125Z,87.10
2023-01-30T15:07:28.237Z,86.80
2023-01-30T15:09:57.915Z,87.20
2023-01-30T15:12:41.546Z,87.60
2023-01-30T15:15:14.250Z,87.70
2023-01-30T15:17:58.238Z,87.20
2023-01-30T15:20:53.422Z,87.20
2023-01-30T15:23:41.828Z,86.90
2023-01-30T15:26:30.781Z,86.20
2023-01-30T15:29:06.332Z,86.20
2023-01-30T15:31:33.805Z,86.30
2023-01-30T15:34:00.650Z,86.00
2023-01-30T15:36:33.216Z,86.10
2023-01-30T15:39:24.575Z,86.00
2023-01-30T15:41:52.934Z,85.90
2023-01-30T15:44:22.493Z,85.90
2023-01-30T15:47:11.346Z,86.00
2023-01-30T15:50:01.359Z,86.20
2023-01-30T15:52:44.318Z,86.70
2023-01-30T15:55:32.924Z,86.20
2023-01-30T15:58:04.644Z,86.30
2023-01-30T16:00:39.163Z,86.00
2023-01-30T16:03:11.278Z,86.40
2023-01-30T16:05:47.556Z,86.50
2023-01-30T16:08:23.228Z,86.40
2023-01-30T16:10:51.639Z,86.60
2023-01-30T16:13:23.771Z,86.60
2023-01-30T16:16:02.452Z,86.70
2023-01-30T16:18:35.736Z,87.00
2023-01-30T16:21:09.798Z,87.00
2023-01-30T16:23:41.615Z,86.90
2023-01-30T16:26:17.616Z,86.80
2023-01-30T16:28:45.708Z,87.20
2023-01-30T16:31:15.769Z,87.40
2023-01-30T16:33:52.571Z,87.50
2023-01-30T16:36:20.756Z,88.10
2023-01-30T16:38:50.142Z,88.70
2023-01-30T16:41:35.200Z,89.20
2023-01-30T16:44:22.150Z,89.20
2023-01-30T16:47:14.338Z,89.00
2023-01-30T16:49:48.512Z,88.80
2023-01-30T16:52:44.373Z,88.90
2023-01-30T16:55:23.633Z,88.90
2023-01-30T16:57:57.584Z,88.30
2023-01-30T17:00:28.411Z,88.10
2023-01-30T17:03:19.549Z,87.80
2023-01-30T17:05:49.451Z,87.70
2023-01-30T17:08:52.383Z,87.50
2023-01-30T17:11:40.104Z,87.40
2023-01-30T17:14:10.574Z,87.30
2023-01-30T17:16:39.282Z,87.30
2023-01-30T17:19:06.372Z,87.60
2023-01-30T17:21:47.778Z,87.40
2023-01-30T17:24:18.239Z,87.60
2023-01-30T17:26:49.218Z,87.20
2023-01-30T17:29:28.920Z,86.90
2023-01-30T17:32:10.404Z,87.00
2023-01-30T17:34:40.845Z,87.20
2023-01-30T17:37:15.192Z,87.50
2023-01-30T17:39:41.980Z,86.90
2023-01-30T17:42:13.184Z,86.60
2023-01-30T17:44:40.605Z,86.90
2023-01-30T17:47:10.944Z,86.90
2023-01-30T17:49:37.833Z,86.90
2023-01-30T17:52:04.908Z,86.60
2023-01-30T17:54:31.723Z,86.70
2023-01-30T17:57:04.608Z,86.70
2023-01-30T17:59:32.579Z,86.40
2023-01-30T18:01:59.858Z,86.00
2023-01-30T18:04:26.789Z,85.70
2023-01-30T18:07:06.279Z,85.50
2023-01-30T18:09:33.072Z,85.50
2023-01-30T18:11:59.805Z,85.30
2023-01-30T18:14:26.598Z,85.70
2023-01-30T18:16:59.706Z,85.30
2023-01-30T18:19:28.150Z,85.40
2023-01-30T18:21:54.915Z,85.30
2023-01-30T18:24:21.667Z,85.90
2023-01-30T18:26:48.544Z,85.80
2023-01-30T18:29:15.444Z,86.00
2023-01-30T18:31:42.355Z,85.70
2023-01-30T18:34:11.056Z,86.10
2023-01-30T18:36:38.497Z,86.50
2023-01-30T18:39:05.917Z,86.70
2023-01-30T18:41:32.874Z,86.50
2023-01-30T18:44:02.255Z,86.30
2023-01-30T18:46:29.837Z,86.20
2023-01-30T18:48:57.646Z,86.30
2023-01-30T18:51:31.299Z,86.50
2023-01-30T18:53:59.496Z,86.90
2023-01-30T18:56:29.412Z,86.20
2023-01-30T18:58:56.886Z,86.50
2023-01-30T19:01:26.552Z,86.90
2023-01-30T19:03:58.180Z,86.80
2023-01-30T19:06:26.031Z,86.70
2023-01-30T19:08:52.950Z,86.60
2023-01-30T19:11:40.135Z,85.90
2023-01-30T19:14:08.190Z,86.10
2023-01-30T19:16:37.271Z,86.20
2023-01-30T19:19:04.906Z,86.20
2023-01-30T19:21:31.821Z,86.00
2023-01-30T19:23:59.567Z,85.90
2023-01-30T19:26:28.777Z,85.10
2023-01-30T19:28:55.606Z,85.60
2023-01-30T19:31:22.724Z,85.20
2023-01-30T19:33:58.408Z,85.40
2023-01-30T19:36:26.693Z,85.30
2023-01-30T19:38:53.900Z,85.20
2023-01-30T19:41:26.048Z,84.90
2023-01-30T19:43:53.816Z,85.20
2023-01-30T19:46:21.324Z,85.80
2023-01-30T19:48:49.042Z,85.90
2023-01-30T19:51:20.412Z,86.00
2023-01-30T19:53:52.634Z,86.20
2023-01-30T19:56:22.158Z,85.50
2023-01-30T19:58:52.309Z,85.70
2023-01-30T20:01:21.378Z,84.90
2023-01-30T20:03:48.590Z,85.10
2023-01-30T20:06:17.736Z,85.30
2023-01-30T20:08:46.079Z,85.10
2023-01-30T20:11:15.318Z,85.30
2023-01-30T20:13:43.184Z,85.50
2023-01-30T20:16:12.484Z,85.70
2023-01-30T20:18:40.201Z,86.00
2023-01-30T20:21:17.286Z,86.30
2023-01-30T20:23:45.307Z,86.20
2023-01-30T20:26:15.094Z,85.80
2023-01-30T20:28:42.266Z,85.80
2023-01-30T20:31:10.368Z,86.00
2023-01-30T20:33:37.327Z,86.10
2023-01-30T20:36:06.134Z,86.40
2023-01-30T20:38:34.281Z,85.90
2023-01-30T20:41:06.119Z,85.60
2023-01-30T20:43:33.924Z,85.40
2023-01-30T20:46:29.764Z,85.90
2023-01-30T20:48:58.566Z,85.80
2023-01-30T20:51:27.543Z,86.00
2023-01-30T20:54:00.134Z,86.00
2023-01-30T20:56:31.547Z,86.20
2023-01-30T20:58:58.444Z,85.90
2023-01-30T21:01:25.726Z,85.80
2023-01-30T21:03:53.736Z,85.60
2023-01-30T21:06:41.221Z,85.80
2023-01-30T21:09:17.537Z,86.10
2023-01-30T21:11:44.988Z,85.70
2023-01-30T21:14:12.043Z,85.90
2023-01-30T21:16:39.511Z,85.70
2023-01-30T21:19:10.089Z,85.90
2023-01-30T21:21:44.415Z,85.50
2023-01-30T21:24:14.567Z,85.60
2023-01-30T21:26:45.940Z,85.40
2023-01-30T21:29:15.695Z,85.50
2023-01-30T21:31:43.619Z,85.50
2023-01-30T21:34:11.095Z,85.50
2023-01-30T21:36:38.003Z,85.10
2023-01-30T21:39:23.624Z,85.40
2023-01-30T21:42:09.376Z,85.40
2023-01-30T21:44:37.856Z,85.50
2023-01-30T21:47:06.679Z,85.60
2023-01-30T21:49:34.202Z,85.40
2023-01-30T21:52:00.960Z,85.30
2023-01-30T21:54:28.035Z,85.60
2023-01-30T21:56:55.681Z,85.80
2023-01-30T21:59:22.457Z,85.20
2023-01-30T22:01:49.635Z,85.50
2023-01-30T22:04:16.798Z,85.20
2023-01-30T22:06:43.955Z,85.70
2023-01-30T22:09:16.201Z,86.00
2023-01-30T22:11:43.793Z,85.90
2023-01-30T22:14:13.274Z,85.70
2023-01-30T22:16:40.825Z,85.50
2023-01-30T22:19:08.212Z,85.60
2023-01-30T22:21:38.670Z,85.10
2023-01-30T22:24:08.301Z,85.60
2023-01-30T22:26:35.468Z,85.80
2023-01-30T22:29:04.339Z,85.80
2023-01-30T22:31:36.386Z,86.30
2023-01-30T22:34:04.497Z,86.10
2023-01-30T22:36:33.672Z,86.10
2023-01-30T22:39:01.136Z,85.90
2023-01-30T22:41:30.683Z,86.00
2023-01-30T22:43:59.535Z,85.80
2023-01-30T22:46:31.277Z,86.00
2023-01-30T22:48:59.392Z,85.40
2023-01-30T22:51:28.764Z,85.40
2023-01-30T22:53:58.724Z,85.70
2023-01-30T22:56:28.484Z,85.70
2023-01-30T22:58:55.730Z,85.50
2023-01-30T23:01:25.498Z,85.50
2023-01-30T23:03:58.100Z,85.40
2023-01-30T23:06:25.738Z,85.30
2023-01-30T23:08:54.123Z,85.80
2023-01-30T23:11:21.019Z,85.70
2023-01-30T23:13:50.121Z,86.10
2023-01-30T23:16:19.753Z,85.50
2023-01-30T23:18:55.532Z,85.70
2023-01-30T23:21:28.417Z,85.70
2023-01-30T23:23:57.167Z,85.30
2023-01-30T23:26:25.862Z,85.40
2023-01-30T23:28:52.952Z,85.20
2023-01-30T23:31:22.377Z,85.20
2023-01-30T23:33:54.337Z,85.10
2023-01-30T23:36:22.164Z,85.00
2023-01-30T23:38:50.673Z,84.80
2023-01-30T23:41:20.549Z,84.70
2023-01-30T23:43:48.153Z,85.20
2023-01-30T23:46:20.016Z,85.40
2023-01-30T23:48:49.616Z,84.90
2023-01-30T23:51:17.957Z,84.80
2023-01-30T23:53:45.307Z,85.00
2023-01-30T23:56:12.675Z,84.60
2023-01-30T23:58:40.191Z,84.90
